Terminal Aerodrome Forecast
Issued by NWS Portland, OR

Home | Current Version | Previous Version | Text Only | Print | Product List | Glossary On
Versions: 1 2 3 4 5 6 7 8 9 10 11 12 13 14
000
FTUS46 KPQR 051130
TAFHIO
TAF
KHIO 051130Z 0512/0612 31005KT P6SM OVC035
     FM051700 32006KT P6SM SCT040 BKN060
     FM052100 33008KT P6SM SCT050 BKN120
     FM060300 32006KT P6SM SCT140=

USA.gov is the U.S. government's official web portal to all federal, state and local government web resources and services.